Time;durP1;ratioP1;P1;durP2;ratioP2;P2;SDS_P1;SDS_P2;PMS_P1;PMS_P2;Temp;Humidity;BMP_temperature;BMP_pressure;BME280_temperature;BME280_humidity;BME280_pressure;Samples;Min_cycle;Max_cycle;Signal;HPM_P1;HPM_P2
2022/08/09 00:04:09;;;;;;;2.83;1.00;;;25.90;43.80;;;;;;10037326;28;20048;-59
2022/08/09 00:08:59;;;;;;;0.90;0.90;;;25.90;43.90;;;;;;10048255;28;20026;-59
2022/08/09 00:13:50;;;;;;;1.70;0.90;;;25.70;44.20;;;;;;10021881;28;20120;-58
2022/08/09 00:18:41;;;;;;;1.10;0.90;;;25.50;44.30;;;;;;10040005;28;20049;-59
2022/08/09 00:23:32;;;;;;;2.17;1.48;;;25.40;44.60;;;;;;10042723;28;20033;-60
2022/08/09 00:28:23;;;;;;;1.08;0.73;;;25.40;44.60;;;;;;10039635;28;20030;-59
2022/08/09 00:33:14;;;;;;;1.80;0.90;;;25.30;44.80;;;;;;10039328;28;20021;-59
2022/08/09 00:38:04;;;;;;;1.27;1.00;;;25.10;45.00;;;;;;10053474;28;20121;-61
2022/08/09 00:42:55;;;;;;;1.60;1.02;;;25.00;45.20;;;;;;10030008;28;20269;-60
2022/08/09 00:47:45;;;;;;;0.88;0.85;;;25.00;45.40;;;;;;10041181;28;20496;-60
2022/08/09 00:52:36;;;;;;;1.30;1.20;;;24.90;45.30;;;;;;10052833;28;20005;-58
2022/08/09 00:57:29;;;;;;;1.10;0.88;;;25.00;45.20;;;;;;10032673;28;20040;-59
2022/08/09 01:02:23;;;;;;;3.55;1.10;;;25.00;45.40;;;;;;10034921;28;20022;-60
2022/08/09 01:07:18;;;;;;;2.75;0.90;;;25.00;45.40;;;;;;10043351;28;20073;-60
2022/08/09 01:12:26;;;;;;;;;;;25.00;45.40;;;;;;10041375;28;20025;-60
2022/08/09 01:17:29;;;;;;;3.15;0.90;;;24.90;45.60;;;;;;10052934;28;20353;-64
2022/08/09 01:22:38;;;;;;;1.25;0.85;;;24.70;45.70;;;;;;10046071;28;20045;-60
2022/08/09 01:27:30;;;;;;;1.33;1.10;;;24.70;46.00;;;;;;10049876;28;20033;-60
2022/08/09 01:32:25;;;;;;;1.90;0.90;;;24.70;46.00;;;;;;10033163;28;20144;-60
2022/08/09 01:37:18;;;;;;;1.30;1.20;;;24.60;46.10;;;;;;10038033;28;20396;-58
2022/08/09 01:42:09;;;;;;;1.30;1.00;;;24.50;46.40;;;;;;10043515;28;20481;-59
2022/08/09 01:47:01;;;;;;;1.52;1.00;;;24.50;46.50;;;;;;10049023;28;20109;-59
2022/08/09 01:51:55;;;;;;;1.30;0.98;;;24.50;46.50;;;;;;10053364;28;20206;-60
2022/08/09 01:56:47;;;;;;;1.27;1.10;;;24.30;46.60;;;;;;10058751;28;20037;-59
2022/08/09 02:01:40;;;;;;;1.27;1.17;;;24.30;46.60;;;;;;10059862;28;20571;-60
2022/08/09 02:11:42;;;;;;;1.10;1.00;;;24.20;47.00;;;;;;10028942;28;20037;-60
2022/08/09 02:16:36;;;;;;;2.40;1.73;;;24.10;47.20;;;;;;10037398;28;20057;-60
2022/08/09 02:21:29;;;;;;;1.27;1.10;;;24.10;47.20;;;;;;10038839;28;20060;-58
2022/08/09 02:26:23;;;;;;;1.10;1.00;;;24.10;47.30;;;;;;10039171;28;20026;-59
2022/08/09 02:31:26;;;;;;;1.90;1.13;;;24.00;47.50;;;;;;10043954;28;20037;-59
2022/08/09 02:36:21;;;;;;;2.67;1.45;;;24.00;47.70;;;;;;10039245;28;20041;-62
2022/08/09 02:41:16;;;;;;;1.33;1.05;;;24.00;47.70;;;;;;10044988;28;20052;-59
2022/08/09 02:46:10;;;;;;;1.10;1.00;;;23.90;47.90;;;;;;10046207;28;20030;-60
2022/08/09 02:51:02;;;;;;;2.05;1.10;;;23.80;48.00;;;;;;10034942;28;20021;-59
2022/08/09 02:55:57;;;;;;;1.90;0.90;;;23.80;48.20;;;;;;10047936;28;20034;-60
2022/08/09 03:00:49;;;;;;;1.70;1.00;;;23.70;48.40;;;;;;10045724;28;20484;-60
2022/08/09 03:05:42;;;;;;;1.20;1.10;;;23.50;48.70;;;;;;10039282;28;20025;-61
2022/08/09 03:10:35;;;;;;;1.30;1.08;;;23.60;48.70;;;;;;10043299;28;20425;-58
2022/08/09 03:15:26;;;;;;;1.27;1.15;;;23.60;48.60;;;;;;10055463;28;20486;-61
2022/08/09 03:20:18;;;;;;;1.50;1.10;;;23.50;49.00;;;;;;10032034;28;20029;-59
2022/08/09 03:25:10;;;;;;;3.53;1.00;;;23.30;49.30;;;;;;10043003;28;20121;-59
2022/08/09 03:30:01;;;;;;;1.30;1.00;;;23.30;49.50;;;;;;10044941;28;20075;-59
2022/08/09 03:34:52;;;;;;;1.35;0.90;;;23.40;49.30;;;;;;10038682;28;20061;-59
2022/08/09 03:39:44;;;;;;;5.53;1.23;;;23.40;49.20;;;;;;10033578;28;20635;-59
2022/08/09 03:44:34;;;;;;;4.18;1.30;;;23.40;49.30;;;;;;10031700;28;20026;-60
2022/08/09 03:49:27;;;;;;;2.65;1.45;;;23.30;49.40;;;;;;10029013;28;20087;-60
2022/08/09 03:54:18;;;;;;;1.55;1.35;;;23.30;49.50;;;;;;10052630;28;20434;-61
2022/08/09 03:59:10;;;;;;;2.95;1.30;;;23.20;49.90;;;;;;10037497;28;20491;-60
2022/08/09 04:04:02;;;;;;;1.00;0.90;;;23.10;50.00;;;;;;10036446;28;20033;-60
2022/08/09 04:08:52;;;;;;;1.45;1.20;;;23.00;49.90;;;;;;10051820;28;20037;-61
2022/08/09 04:13:43;;;;;;;1.48;1.30;;;23.10;50.00;;;;;;10044808;28;20108;-60
2022/08/09 04:18:34;;;;;;;2.33;1.27;;;23.00;50.10;;;;;;10040048;28;20069;-62
2022/08/09 04:23:24;;;;;;;3.17;1.33;;;23.00;50.30;;;;;;10046008;28;20006;-61
2022/08/09 04:28:15;;;;;;;3.42;1.40;;;23.00;50.30;;;;;;10039769;28;20029;-60
2022/08/09 04:33:06;;;;;;;1.42;1.25;;;23.00;50.60;;;;;;10034156;28;20036;-60
2022/08/09 04:37:56;;;;;;;3.83;1.48;;;22.90;50.80;;;;;;10044530;28;20038;-61
2022/08/09 04:42:47;;;;;;;1.52;1.17;;;22.80;50.90;;;;;;10035780;28;20377;-60
2022/08/09 04:47:38;;;;;;;1.08;0.93;;;22.80;51.00;;;;;;10040118;28;20423;-63
2022/08/09 04:52:29;;;;;;;2.33;1.35;;;22.80;51.00;;;;;;10054317;28;20026;-64
2022/08/09 04:57:20;;;;;;;1.85;1.13;;;22.90;51.00;;;;;;10030276;28;20052;-60
2022/08/09 05:02:11;;;;;;;2.15;1.48;;;22.80;51.10;;;;;;10044513;28;20492;-61
2022/08/09 05:07:01;;;;;;;1.83;1.27;;;22.60;51.60;;;;;;10045026;28;20040;-60
2022/08/09 05:11:52;;;;;;;2.38;1.52;;;22.70;51.50;;;;;;10042866;28;20249;-60
2022/08/09 05:16:42;;;;;;;1.33;1.10;;;22.90;51.30;;;;;;10052359;28;20056;-59
2022/08/09 05:21:33;;;;;;;2.08;1.20;;;22.70;51.40;;;;;;10044813;28;20034;-61
2022/08/09 05:26:24;;;;;;;4.95;1.20;;;22.70;51.90;;;;;;10033750;28;20034;-60
2022/08/09 05:31:16;;;;;;;1.92;1.05;;;22.70;51.80;;;;;;10048585;28;20014;-59
2022/08/09 05:36:07;;;;;;;3.88;1.48;;;22.90;51.50;;;;;;10031485;28;20423;-59
2022/08/09 05:40:57;;;;;;;3.15;1.63;;;22.70;51.90;;;;;;10034029;28;20041;-59
2022/08/09 05:45:48;;;;;;;2.00;1.30;;;22.70;51.90;;;;;;10043400;28;20115;-59
2022/08/09 05:50:42;;;;;;;1.77;1.30;;;22.50;52.20;;;;;;10031326;28;20113;-59
2022/08/09 05:55:33;;;;;;;1.50;1.13;;;22.80;52.10;;;;;;10029459;28;20037;-60
2022/08/09 06:00:26;;;;;;;2.03;1.15;;;22.80;51.90;;;;;;10038632;28;20500;-59
2022/08/09 06:05:17;;;;;;;2.42;1.10;;;22.60;52.40;;;;;;10029441;28;20028;-59
2022/08/09 06:10:08;;;;;;;1.58;1.10;;;22.70;52.50;;;;;;10037490;28;20352;-62
2022/08/09 06:14:58;;;;;;;3.55;1.65;;;22.70;52.70;;;;;;10040468;28;20123;-61
2022/08/09 06:19:49;;;;;;;1.67;1.35;;;22.90;52.30;;;;;;10031480;28;20520;-61
2022/08/09 06:24:40;;;;;;;1.42;1.23;;;22.90;52.30;;;;;;10034132;28;20029;-60
2022/08/09 06:29:30;;;;;;;4.80;1.33;;;23.00;52.20;;;;;;10034422;28;20152;-62
2022/08/09 06:34:21;;;;;;;1.98;1.88;;;23.10;52.20;;;;;;10051902;28;20021;-67
2022/08/09 06:39:12;;;;;;;3.72;1.40;;;23.10;52.00;;;;;;10062011;28;20124;-67
2022/08/09 06:44:03;;;;;;;3.40;1.77;;;22.90;52.80;;;;;;10066021;28;20274;-67
2022/08/09 06:48:53;;;;;;;1.25;1.15;;;22.90;52.50;;;;;;10061886;28;20038;-65
2022/08/09 06:53:44;;;;;;;1.90;1.23;;;23.00;52.50;;;;;;10054113;28;20353;-68
2022/08/09 06:58:36;;;;;;;1.98;1.38;;;22.90;52.80;;;;;;10054855;28;20044;-69
2022/08/09 07:03:26;;;;;;;2.25;1.27;;;23.00;52.90;;;;;;10056495;28;20041;-63
2022/08/09 07:08:17;;;;;;;1.63;1.30;;;23.00;52.90;;;;;;10046229;28;20068;-64
2022/08/09 07:13:09;;;;;;;3.15;1.42;;;23.10;53.20;;;;;;10072164;28;20028;-64
2022/08/09 07:17:59;;;;;;;2.65;1.50;;;23.20;53.20;;;;;;10043620;28;20045;-65
2022/08/09 07:22:51;;;;;;;2.95;1.55;;;23.40;52.80;;;;;;10045517;28;20056;-64
2022/08/09 07:27:42;;;;;;;1.45;1.23;;;23.60;52.60;;;;;;10052594;28;20021;-66
2022/08/09 07:32:33;;;;;;;2.30;1.27;;;23.60;52.80;;;;;;10060642;28;20461;-67
2022/08/09 07:37:23;;;;;;;14.45;2.47;;;23.70;52.70;;;;;;10055223;28;20048;-66
2022/08/09 07:42:14;;;;;;;2.42;1.50;;;23.90;52.50;;;;;;10057280;28;20099;-68
2022/08/09 07:47:05;;;;;;;1.75;1.45;;;23.90;52.50;;;;;;10058509;28;20079;-65
2022/08/09 07:51:56;;;;;;;3.85;1.73;;;23.90;52.70;;;;;;10055394;28;20026;-65
2022/08/09 07:56:46;;;;;;;3.83;2.45;;;24.00;52.50;;;;;;10053713;28;20037;-62
2022/08/09 08:01:37;;;;;;;8.82;4.20;;;24.10;52.30;;;;;;10055229;28;20451;-66
2022/08/09 08:06:29;;;;;;;3.13;2.08;;;24.40;51.90;;;;;;10044548;28;20451;-61
2022/08/09 08:11:19;;;;;;;3.83;1.80;;;24.60;51.80;;;;;;10044707;28;20484;-61
2022/08/09 08:16:10;;;;;;;5.28;2.17;;;24.50;51.90;;;;;;10052368;28;20038;-62
2022/08/09 08:21:01;;;;;;;5.25;2.97;;;24.70;51.80;;;;;;10049928;28;20460;-63
2022/08/09 08:25:51;;;;;;;3.00;1.70;;;24.80;51.60;;;;;;10045589;28;20034;-60
2022/08/09 08:30:43;;;;;;;4.53;1.90;;;24.80;51.50;;;;;;10027942;28;20049;-61
2022/08/09 08:35:34;;;;;;;3.25;2.30;;;24.90;51.40;;;;;;10041631;28;20022;-65
2022/08/09 08:40:25;;;;;;;2.03;1.45;;;25.20;51.20;;;;;;10053147;28;20026;-65
2022/08/09 08:45:21;;;;;;;6.30;3.58;;;25.20;51.20;;;;;;10051547;28;20040;-65
2022/08/09 08:50:15;;;;;;;1.95;1.42;;;25.30;51.20;;;;;;10052235;28;20059;-62
2022/08/09 08:55:07;;;;;;;4.20;1.70;;;25.40;51.20;;;;;;10051456;28;20567;-66
2022/08/09 08:59:57;;;;;;;3.97;1.70;;;25.60;51.00;;;;;;10048759;28;20049;-68
2022/08/09 09:04:59;;;;;;;5.35;1.90;;;25.70;51.00;;;;;;10051050;28;20702;-68
2022/08/09 09:09:52;;;;;;;1.90;1.70;;;25.90;50.80;;;;;;10050147;28;20052;-64
2022/08/09 09:14:45;;;;;;;2.58;1.40;;;26.00;50.70;;;;;;10050983;28;20068;-69
2022/08/09 09:19:36;;;;;;;3.05;1.73;;;25.90;50.90;;;;;;10050965;28;20364;-67
2022/08/09 09:24:28;;;;;;;5.90;2.50;;;26.10;50.90;;;;;;10050689;28;20022;-66
2022/08/09 09:29:27;;;;;;;3.20;1.67;;;26.30;50.70;;;;;;10047050;28;20057;-67
2022/08/09 09:34:18;;;;;;;3.70;1.60;;;26.40;50.60;;;;;;10051387;28;20519;-66
2022/08/09 09:39:10;;;;;;;2.50;1.58;;;26.50;50.60;;;;;;10050977;28;20048;-67
2022/08/09 09:44:04;;;;;;;7.20;2.00;;;26.60;50.50;;;;;;10050328;28;20028;-66
2022/08/09 09:49:07;;;;;;;2.60;1.58;;;26.70;50.40;;;;;;10049123;28;20037;-67
2022/08/09 09:54:14;;;;;;;2.72;1.65;;;26.80;50.40;;;;;;10050069;28;20069;-66
2022/08/09 09:59:06;;;;;;;4.40;2.00;;;27.00;50.40;;;;;;10048431;28;20113;-67
2022/08/09 10:03:58;;;;;;;2.80;1.98;;;27.10;50.30;;;;;;10057768;28;20025;-66
2022/08/09 10:08:50;;;;;;;4.45;1.55;;;27.20;50.10;;;;;;10057402;28;20043;-66
2022/08/09 10:13:40;;;;;;;3.45;1.60;;;27.30;49.90;;;;;;10057455;28;20406;-67
2022/08/09 10:18:31;;;;;;;4.43;1.77;;;27.40;49.80;;;;;;10055697;28;20085;-66
2022/08/09 10:23:22;;;;;;;1.88;1.70;;;27.50;49.70;;;;;;10055779;28;20026;-64
2022/08/09 10:28:13;;;;;;;2.17;1.70;;;27.70;49.40;;;;;;10053439;28;20041;-63
2022/08/09 10:33:04;;;;;;;6.40;3.38;;;27.70;49.20;;;;;;10055998;28;20026;-64
2022/08/09 10:37:55;;;;;;;3.95;1.60;;;27.90;49.10;;;;;;10057657;28;20038;-63
2022/08/09 10:42:45;;;;;;;3.60;1.80;;;28.00;49.00;;;;;;10047871;28;20500;-63
2022/08/09 10:47:42;;;;;;;2.63;1.73;;;28.30;48.70;;;;;;10041556;28;20026;-62
2022/08/09 10:52:52;;;;;;;2.95;1.55;;;28.20;48.40;;;;;;10040360;28;20588;-64
2022/08/09 10:57:42;;;;;;;4.13;1.75;;;28.30;48.10;;;;;;10049137;28;20041;-64
2022/08/09 11:02:39;;;;;;;2.33;1.60;;;28.30;48.70;;;;;;10058646;28;20017;-64
2022/08/09 11:07:30;;;;;;;3.58;1.45;;;28.50;47.30;;;;;;10055367;28;20080;-63
2022/08/09 11:12:23;;;;;;;4.55;1.48;;;28.60;46.60;;;;;;10055973;28;20030;-65
2022/08/09 11:17:14;;;;;;;2.73;1.57;;;28.70;46.40;;;;;;10057779;28;20053;-68
2022/08/09 11:22:07;;;;;;;3.17;1.63;;;28.80;46.10;;;;;;10052052;28;20030;-62
2022/08/09 11:26:57;;;;;;;2.83;2.10;;;28.80;46.00;;;;;;10058118;28;20071;-65
2022/08/09 11:31:48;;;;;;;3.00;1.67;;;28.90;45.70;;;;;;10053398;28;20021;-63
2022/08/09 11:36:42;;;;;;;2.42;1.52;;;29.00;45.50;;;;;;10055871;28;20052;-63
2022/08/09 11:41:33;;;;;;;3.50;2.05;;;29.00;45.30;;;;;;10055188;28;20458;-64
2022/08/09 11:46:24;;;;;;;2.70;1.75;;;29.10;45.10;;;;;;10048967;28;20144;-65
2022/08/09 11:51:15;;;;;;;1.63;1.30;;;29.20;44.80;;;;;;10055482;28;20443;-64
2022/08/09 11:56:15;;;;;;;3.63;2.05;;;29.30;44.80;;;;;;10043084;28;20404;-64
2022/08/09 12:01:05;;;;;;;2.17;1.70;;;29.50;44.70;;;;;;10054590;28;20078;-63
2022/08/09 12:06:00;;;;;;;3.47;1.70;;;29.50;44.20;;;;;;10049880;28;20108;-65
2022/08/09 12:11:00;;;;;;;3.70;1.60;;;29.60;44.10;;;;;;10044574;28;20025;-63
2022/08/09 12:15:50;;;;;;;4.13;1.67;;;29.80;43.50;;;;;;10049121;28;20444;-66
2022/08/09 12:20:42;;;;;;;2.40;1.80;;;30.00;43.30;;;;;;10062532;28;20068;-66
2022/08/09 12:25:33;;;;;;;1.85;1.75;;;30.40;43.00;;;;;;10045085;28;20108;-65
2022/08/09 12:30:30;;;;;;;3.42;1.63;;;30.70;42.80;;;;;;10055759;28;20584;-67
2022/08/09 12:35:21;;;;;;;3.08;1.90;;;30.90;42.40;;;;;;10053723;28;20455;-65
2022/08/09 12:40:12;;;;;;;3.97;1.60;;;31.10;42.10;;;;;;10041237;28;20025;-65
2022/08/09 12:45:04;;;;;;;3.80;1.33;;;31.40;41.90;;;;;;10048419;28;20025;-64
2022/08/09 12:55:08;;;;;;;2.78;1.40;;;31.90;41.40;;;;;;10045085;28;20087;-66
2022/08/09 13:00:17;;;;;;;2.17;1.25;;;32.20;41.20;;;;;;10049579;28;20045;-64
2022/08/09 13:05:08;;;;;;;3.35;1.35;;;32.60;39.90;;;;;;10049215;28;20046;-64
2022/08/09 13:10:04;;;;;;;2.00;1.40;;;32.80;40.20;;;;;;10052129;28;20200;-64
2022/08/09 13:15:07;;;;;;;4.30;1.63;;;33.40;39.70;;;;;;10052992;28;20051;-65
2022/08/09 13:19:58;;;;;;;4.55;1.40;;;34.20;38.70;;;;;;10056942;28;20120;-63
2022/08/09 13:24:52;;;;;;;2.33;1.35;;;34.80;38.20;;;;;;10042817;28;20353;-61
2022/08/09 13:29:51;;;;;;;1.80;1.23;;;35.80;37.70;;;;;;10052136;28;20139;-65
2022/08/09 13:34:42;;;;;;;3.35;1.40;;;36.20;36.40;;;;;;10033889;28;20033;-63
2022/08/09 13:39:34;;;;;;;2.13;1.58;;;36.70;35.90;;;;;;10039957;28;20508;-62
2022/08/09 13:44:24;;;;;;;2.63;1.60;;;37.00;35.50;;;;;;10046739;28;20508;-63
2022/08/09 13:49:15;;;;;;;2.80;1.63;;;37.20;35.20;;;;;;10055144;28;20129;-64
2022/08/09 13:54:06;;;;;;;2.88;1.70;;;37.70;35.00;;;;;;10055963;28;20095;-64
2022/08/09 13:58:56;;;;;;;4.40;1.70;;;38.10;35.00;;;;;;10051371;28;20093;-62
2022/08/09 14:03:47;;;;;;;2.00;1.40;;;38.30;34.90;;;;;;10050078;28;20036;-62
2022/08/09 14:08:38;;;;;;;2.00;1.63;;;38.60;34.60;;;;;;10056154;28;20518;-62
2022/08/09 14:13:29;;;;;;;5.97;1.38;;;38.70;34.30;;;;;;10057390;28;20497;-62
2022/08/09 14:18:20;;;;;;;2.50;1.30;;;39.10;34.40;;;;;;10055699;28;20045;-61
2022/08/09 14:23:10;;;;;;;2.17;1.48;;;38.80;34.10;;;;;;10045132;28;20526;-62
2022/08/09 14:28:01;;;;;;;3.15;1.30;;;38.80;34.10;;;;;;10036901;28;20068;-62
2022/08/09 14:32:51;;;;;;;3.90;1.30;;;38.80;34.10;;;;;;10042690;28;20690;-62
2022/08/09 14:37:42;;;;;;;1.63;1.25;;;38.50;33.90;;;;;;10037383;28;20345;-61
2022/08/09 14:42:33;;;;;;;1.42;1.25;;;38.70;33.60;;;;;;10042857;28;20025;-61
2022/08/09 14:47:23;;;;;;;3.00;1.58;;;38.80;33.60;;;;;;10050669;28;20053;-62
2022/08/09 14:52:14;;;;;;;2.38;1.40;;;38.80;33.20;;;;;;10044383;28;20025;-62
2022/08/09 14:57:05;;;;;;;3.25;1.45;;;38.50;33.20;;;;;;10048104;28;20063;-63
2022/08/09 15:01:55;;;;;;;5.15;1.70;;;38.70;33.20;;;;;;10050103;28;20156;-64
2022/08/09 15:06:46;;;;;;;3.13;1.40;;;39.00;33.20;;;;;;10053752;28;20087;-65
2022/08/09 15:11:36;;;;;;;2.67;1.60;;;39.10;33.20;;;;;;10058269;28;20025;-64
2022/08/09 15:16:27;;;;;;;2.60;1.40;;;38.90;33.20;;;;;;10055376;28;20057;-62
2022/08/09 15:21:19;;;;;;;2.25;1.42;;;38.30;33.00;;;;;;10055283;28;20013;-62
2022/08/09 15:26:09;;;;;;;1.50;1.40;;;38.30;33.10;;;;;;10055249;28;20025;-63
2022/08/09 15:31:01;;;;;;;1.65;1.20;;;38.30;33.10;;;;;;10056057;28;20040;-66
2022/08/09 15:35:51;;;;;;;3.28;1.38;;;38.50;32.90;;;;;;10054229;28;20030;-65
2022/08/09 15:40:42;;;;;;;4.07;1.85;;;38.40;32.70;;;;;;10055113;28;20030;-66
2022/08/09 15:45:33;;;;;;;1.50;1.35;;;38.90;32.60;;;;;;10036139;28;20033;-67
2022/08/09 15:50:24;;;;;;;2.40;1.20;;;39.20;32.30;;;;;;10053689;28;20112;-66
2022/08/09 15:55:18;;;;;;;1.63;1.40;;;39.50;32.20;;;;;;10052253;28;20484;-61
2022/08/09 16:00:14;;;;;;;2.95;1.58;;;39.40;32.10;;;;;;10040624;28;20099;-62
2022/08/09 16:05:07;;;;;;;1.80;1.38;;;39.90;31.70;;;;;;10053678;28;20033;-60
2022/08/09 16:09:58;;;;;;;2.58;2.38;;;40.70;31.30;;;;;;10055149;28;20088;-63
2022/08/09 16:14:48;;;;;;;2.97;1.50;;;41.30;31.00;;;;;;10051932;28;20067;-61
2022/08/09 16:19:39;;;;;;;3.50;1.42;;;41.80;30.60;;;;;;10056519;28;20094;-61
2022/08/09 16:24:30;;;;;;;1.63;1.42;;;42.20;30.50;;;;;;10055559;28;20029;-64
2022/08/09 16:29:20;;;;;;;1.98;1.20;;;42.50;30.10;;;;;;10053678;28;20377;-64
2022/08/09 16:34:12;;;;;;;2.35;1.40;;;43.20;30.00;;;;;;10054816;28;20450;-61
2022/08/09 16:39:04;;;;;;;1.73;1.38;;;43.20;29.90;;;;;;10054106;28;20037;-65
2022/08/09 16:43:55;;;;;;;3.47;1.55;;;43.60;29.50;;;;;;10047825;28;20045;-65
2022/08/09 16:48:47;;;;;;;2.33;1.35;;;43.60;29.20;;;;;;10051501;28;20037;-64
2022/08/09 16:53:38;;;;;;;4.80;1.52;;;43.40;29.00;;;;;;10046450;28;20037;-60
2022/08/09 16:58:28;;;;;;;1.42;1.15;;;43.10;28.80;;;;;;10050948;28;20484;-59
2022/08/09 17:03:19;;;;;;;2.25;1.38;;;43.00;28.60;;;;;;10046999;28;20458;-64
2022/08/09 17:08:10;;;;;;;1.98;1.50;;;43.10;29.10;;;;;;10042917;28;20395;-67
2022/08/09 17:13:01;;;;;;;3.08;1.40;;;42.90;28.40;;;;;;10045786;28;20076;-61
2022/08/09 17:17:52;;;;;;;1.50;1.40;;;43.80;28.60;;;;;;10043640;28;20325;-70
2022/08/09 17:22:43;;;;;;;1.63;1.30;;;43.80;27.90;;;;;;10037861;28;20033;-64
2022/08/09 17:27:36;;;;;;;1.55;1.25;;;43.70;27.90;;;;;;10041523;28;20033;-65
2022/08/09 17:32:26;;;;;;;2.03;1.30;;;42.10;28.20;;;;;;10033173;28;20530;-65
2022/08/09 17:37:17;;;;;;;2.20;1.00;;;41.80;28.40;;;;;;10032323;28;20044;-65
2022/08/09 17:42:08;;;;;;;1.87;0.90;;;40.80;28.50;;;;;;10037166;28;20200;-63
2022/08/09 17:46:59;;;;;;;2.75;1.08;;;37.20;29.80;;;;;;10036242;28;20129;-65
2022/08/09 17:51:50;;;;;;;3.20;1.73;;;34.90;31.00;;;;;;10041783;28;20025;-65
2022/08/09 17:56:41;;;;;;;3.53;1.30;;;33.80;31.50;;;;;;10042382;28;20204;-64
2022/08/09 18:01:32;;;;;;;1.42;1.25;;;33.30;31.80;;;;;;10040123;28;20469;-64
2022/08/09 18:06:23;;;;;;;3.10;1.40;;;32.90;32.00;;;;;;10045033;28;20053;-65
2022/08/09 18:11:14;;;;;;;2.30;1.00;;;32.70;32.50;;;;;;10038937;28;20535;-65
2022/08/09 18:16:05;;;;;;;1.05;0.98;;;32.50;32.80;;;;;;10042827;28;20046;-65
2022/08/09 18:20:58;;;;;;;2.83;1.23;;;32.40;32.90;;;;;;10032010;28;20396;-64
2022/08/09 18:25:48;;;;;;;6.88;1.63;;;32.20;33.20;;;;;;10055921;28;20088;-64
2022/08/09 18:30:40;;;;;;;10.23;1.75;;;32.00;34.20;;;;;;10032754;28;20196;-63
2022/08/09 18:35:31;;;;;;;1.92;1.10;;;31.80;33.60;;;;;;10033899;28;20639;-65
2022/08/09 18:40:22;;;;;;;1.85;1.20;;;31.60;34.00;;;;;;10045515;28;20104;-65
2022/08/09 18:45:13;;;;;;;2.58;1.48;;;31.50;34.10;;;;;;10042188;28;20066;-65
2022/08/09 18:50:04;;;;;;;2.15;1.60;;;31.40;34.50;;;;;;10034516;28;20033;-65
2022/08/09 18:54:55;;;;;;;1.85;1.30;;;31.30;34.80;;;;;;10063046;28;20032;-66
2022/08/09 18:59:46;;;;;;;1.67;1.05;;;31.20;34.90;;;;;;10046060;28;20419;-64
2022/08/09 19:04:36;;;;;;;1.38;1.05;;;31.00;34.90;;;;;;10040921;28;20304;-66
2022/08/09 19:09:27;;;;;;;3.30;1.48;;;30.90;35.30;;;;;;10054108;28;20036;-65
2022/08/09 19:14:18;;;;;;;7.93;1.70;;;30.80;35.30;;;;;;10050313;28;20021;-65
2022/08/09 19:19:08;;;;;;;3.58;1.55;;;30.80;35.40;;;;;;10041719;28;20030;-63
2022/08/09 19:23:59;;;;;;;2.47;1.27;;;30.70;35.70;;;;;;10040397;28;20111;-65
2022/08/09 19:28:50;;;;;;;2.85;1.52;;;30.50;36.00;;;;;;10030245;28;20022;-65
2022/08/09 19:33:41;;;;;;;3.50;1.60;;;30.30;36.10;;;;;;10048448;28;20101;-65
2022/08/09 19:38:32;;;;;;;4.55;1.50;;;30.30;36.10;;;;;;10042680;28;20048;-65
2022/08/09 19:43:24;;;;;;;3.50;2.17;;;30.10;36.50;;;;;;10030253;28;20020;-65
2022/08/09 19:48:14;;;;;;;2.60;1.77;;;30.20;36.50;;;;;;10054171;28;20068;-65
2022/08/09 19:53:05;;;;;;;3.42;1.92;;;30.10;36.60;;;;;;10056579;28;20119;-65
2022/08/09 19:57:56;;;;;;;3.70;2.25;;;30.00;36.80;;;;;;10026495;28;20047;-65
2022/08/09 20:02:47;;;;;;;1.65;1.40;;;29.90;37.00;;;;;;10044653;28;20025;-64
2022/08/09 20:07:38;;;;;;;2.95;1.90;;;29.90;37.20;;;;;;10049488;28;20025;-64
2022/08/09 20:12:29;;;;;;;2.13;1.90;;;29.80;37.20;;;;;;10042699;28;20557;-66
2022/08/09 20:17:20;;;;;;;3.17;1.73;;;29.70;37.30;;;;;;10045402;28;20057;-65
2022/08/09 20:22:10;;;;;;;3.97;2.15;;;29.70;37.40;;;;;;10040452;28;20033;-65
2022/08/09 20:27:03;;;;;;;2.92;1.58;;;29.70;37.50;;;;;;10040481;28;20061;-67
2022/08/09 20:31:53;;;;;;;1.83;1.48;;;29.60;37.70;;;;;;10050659;28;20554;-66
2022/08/09 20:36:44;;;;;;;3.17;1.80;;;29.60;37.80;;;;;;10028077;28;20077;-63
2022/08/09 20:41:35;;;;;;;1.88;1.60;;;29.50;38.10;;;;;;10036775;28;20037;-66
2022/08/09 20:46:25;;;;;;;3.45;1.50;;;29.40;38.10;;;;;;10046107;28;20049;-66
2022/08/09 20:51:22;;;;;;;2.90;1.67;;;29.30;38.30;;;;;;10025987;28;20586;-67
2022/08/09 20:56:14;;;;;;;2.15;1.60;;;29.30;38.50;;;;;;10031422;28;20512;-64
2022/08/09 21:01:06;;;;;;;5.38;2.35;;;29.20;38.40;;;;;;10047433;28;20025;-64
2022/08/09 21:05:57;;;;;;;2.72;1.60;;;29.20;38.50;;;;;;10018998;28;20029;-67
2022/08/09 21:10:48;;;;;;;2.45;1.48;;;29.10;38.70;;;;;;10042936;28;20028;-66
2022/08/09 21:15:38;;;;;;;2.63;1.33;;;29.00;38.80;;;;;;10049422;28;20045;-64
2022/08/09 21:20:29;;;;;;;1.55;1.23;;;28.90;38.90;;;;;;10035325;28;20222;-65
2022/08/09 21:30:30;;;;;;;2.67;1.60;;;28.70;39.40;;;;;;10051265;28;20033;-64
2022/08/09 21:35:21;;;;;;;2.50;1.55;;;28.60;39.50;;;;;;10024321;28;20039;-64
2022/08/09 21:40:12;;;;;;;1.95;1.58;;;28.50;39.80;;;;;;10039682;28;20033;-64
2022/08/09 21:45:04;;;;;;;8.55;2.13;;;28.40;40.20;;;;;;10045748;28;20022;-63
2022/08/09 21:49:54;;;;;;;3.33;1.70;;;28.20;40.40;;;;;;10039401;28;20061;-64
2022/08/09 21:54:46;;;;;;;2.03;1.83;;;28.10;40.60;;;;;;10045460;28;20025;-64
2022/08/09 21:59:37;;;;;;;2.47;1.52;;;28.00;40.90;;;;;;10036944;28;20460;-66
2022/08/09 22:04:28;;;;;;;2.40;1.90;;;27.90;41.10;;;;;;10037148;28;20092;-64
2022/08/09 22:09:19;;;;;;;2.47;1.40;;;27.90;41.20;;;;;;10032105;28;20447;-64
2022/08/09 22:14:09;;;;;;;3.35;1.55;;;27.70;41.50;;;;;;10068637;28;20076;-63
2022/08/09 22:19:00;;;;;;;3.03;1.55;;;27.70;41.60;;;;;;10058919;28;20123;-62
2022/08/09 22:23:51;;;;;;;3.22;2.00;;;27.50;41.80;;;;;;10048205;28;20091;-62
2022/08/09 22:28:41;;;;;;;4.80;1.38;;;27.50;42.00;;;;;;10045168;28;20045;-64
2022/08/09 22:33:32;;;;;;;3.90;1.83;;;27.30;42.10;;;;;;10054481;28;20033;-68
2022/08/09 22:38:23;;;;;;;2.30;1.50;;;27.30;42.40;;;;;;10061771;28;20048;-64
2022/08/09 22:43:13;;;;;;;2.35;1.70;;;27.20;42.60;;;;;;10046784;28;20017;-64
2022/08/09 22:48:04;;;;;;;5.20;2.17;;;27.20;42.60;;;;;;10059618;28;20029;-63
2022/08/09 22:52:55;;;;;;;4.35;1.67;;;27.10;42.80;;;;;;10053089;28;20029;-62
2022/08/09 22:57:45;;;;;;;3.22;1.60;;;27.10;42.80;;;;;;10055525;28;20148;-62
2022/08/09 23:02:36;;;;;;;4.63;2.72;;;27.00;42.80;;;;;;10057200;28;20830;-63
2022/08/09 23:12:36;;;;;;;2.72;1.55;;;26.70;43.40;;;;;;10043363;28;20056;-64
2022/08/09 23:17:26;;;;;;;4.07;1.90;;;26.70;43.50;;;;;;10055163;28;20562;-64
2022/08/09 23:22:17;;;;;;;5.63;1.92;;;26.80;43.60;;;;;;10040084;28;20511;-64
2022/08/09 23:27:08;;;;;;;2.65;1.73;;;26.90;43.90;;;;;;10040612;28;20108;-64
2022/08/09 23:31:58;;;;;;;2.78;2.13;;;26.80;44.00;;;;;;10031209;28;20065;-64
2022/08/09 23:36:49;;;;;;;2.35;1.42;;;26.80;44.20;;;;;;10055860;28;20037;-65
2022/08/09 23:41:40;;;;;;;4.07;1.85;;;26.70;44.40;;;;;;10042770;28;20025;-65
2022/08/09 23:46:31;;;;;;;3.15;1.80;;;26.70;44.50;;;;;;10043079;28;20143;-66
2022/08/09 23:51:22;;;;;;;4.65;1.65;;;26.60;44.60;;;;;;10049417;28;20033;-66
2022/08/09 23:56:13;;;;;;;2.10;1.30;;;26.50;44.70;;;;;;10040971;28;20400;-64
